Time;durP1;ratioP1;P1;durP2;ratioP2;P2;SDS_P1;SDS_P2;PMS_P1;PMS_P2;Temp;Humidity;BMP_temperature;BMP_pressure;BME280_temperature;BME280_humidity;BME280_pressure;Samples;Min_cycle;Max_cycle;Signal;HPM_P1;HPM_P2
2022/06/22 00:02:04;;;;;;;1.92;1.50;;;21.90;55.10;;;;;;5107556;28;20039;-64
2022/06/22 00:05:00;;;;;;;2.85;1.48;;;21.90;55.20;;;;;;5106777;28;20074;-64
2022/06/22 00:07:42;;;;;;;2.42;1.60;;;21.90;55.10;;;;;;5088065;28;20130;-64
2022/06/22 00:10:30;;;;;;;2.38;1.55;;;21.90;55.20;;;;;;5107052;28;20051;-64
2022/06/22 00:12:57;;;;;;;;;;;21.90;55.20;;;;;;5106391;28;20135;-65
2022/06/22 00:15:56;;;;;;;1.77;1.63;;;21.90;55.10;;;;;;5087932;28;19923;-65
2022/06/22 00:18:31;;;;;;;2.55;1.60;;;21.90;55.20;;;;;;5092020;28;20499;-64
2022/06/22 00:21:06;;;;;;;3.35;1.70;;;21.90;55.20;;;;;;5106208;28;20404;-64
2022/06/22 00:23:40;;;;;;;4.25;1.75;;;21.80;55.20;;;;;;5107556;28;20130;-65
2022/06/22 00:26:17;;;;;;;2.08;1.63;;;21.90;55.30;;;;;;5106167;28;20430;-65
2022/06/22 00:28:53;;;;;;;2.95;1.58;;;21.80;55.20;;;;;;5106112;28;20460;-64
2022/06/22 00:31:38;;;;;;;3.13;1.70;;;21.90;55.20;;;;;;5105785;28;20040;-65
2022/06/22 00:34:14;;;;;;;2.78;1.70;;;21.80;55.20;;;;;;5105218;28;20044;-65
2022/06/22 00:37:02;;;;;;;1.88;1.60;;;21.80;55.20;;;;;;5092519;28;20151;-65
2022/06/22 00:39:28;;;;;;;3.28;1.85;;;21.80;55.20;;;;;;5106154;28;20108;-65
2022/06/22 00:42:14;;;;;;;2.50;1.70;;;21.80;55.20;;;;;;5105698;28;20075;-65
2022/06/22 00:45:06;;;;;;;2.08;1.50;;;21.80;55.20;;;;;;5105980;28;20134;-65
2022/06/22 00:47:36;;;;;;;2.72;1.70;;;21.80;55.30;;;;;;5091438;28;20028;-65
2022/06/22 00:50:17;;;;;;;1.75;1.52;;;21.70;55.20;;;;;;5105529;28;20134;-64
2022/06/22 00:52:48;;;;;;;2.63;1.45;;;21.70;55.20;;;;;;5094093;28;20043;-64
2022/06/22 00:55:16;;;;;;;2.35;1.50;;;21.70;55.20;;;;;;5105032;28;20036;-66
2022/06/22 00:57:48;;;;;;;2.05;1.67;;;21.70;55.20;;;;;;5106303;28;20046;-65
2022/06/22 01:00:22;;;;;;;2.75;1.70;;;21.70;55.20;;;;;;5103984;28;20051;-65
2022/06/22 01:02:55;;;;;;;2.42;1.63;;;21.70;55.30;;;;;;5105717;28;20044;-65
2022/06/22 01:05:28;;;;;;;3.30;1.77;;;21.70;55.20;;;;;;5105748;28;20059;-63
2022/06/22 01:08:12;;;;;;;2.40;1.60;;;21.70;55.20;;;;;;5105156;28;20377;-64
2022/06/22 01:10:48;;;;;;;2.30;1.58;;;21.70;55.20;;;;;;5105489;28;20466;-66
2022/06/22 01:13:24;;;;;;;2.17;1.70;;;21.70;55.20;;;;;;5104901;28;20188;-66
2022/06/22 01:15:59;;;;;;;2.92;2.00;;;21.70;55.20;;;;;;5105389;28;20505;-67
2022/06/22 01:18:31;;;;;;;2.85;1.80;;;21.70;55.20;;;;;;5104947;28;20441;-65
2022/06/22 01:21:18;;;;;;;3.13;1.60;;;21.70;55.20;;;;;;5104272;28;20048;-66
2022/06/22 01:23:55;;;;;;;3.70;1.55;;;21.70;55.20;;;;;;5105382;28;20059;-66
2022/06/22 01:26:45;;;;;;;2.47;1.40;;;21.70;55.20;;;;;;5104375;28;20057;-66
2022/06/22 01:29:21;;;;;;;2.78;1.83;;;21.70;55.20;;;;;;5104504;28;20040;-67
2022/06/22 01:32:00;;;;;;;2.72;1.73;;;21.60;55.10;;;;;;5092718;28;20110;-66
2022/06/22 01:34:35;;;;;;;2.63;1.77;;;21.60;55.20;;;;;;5104672;28;20069;-65
2022/06/22 01:37:04;;;;;;;4.07;1.88;;;21.60;55.20;;;;;;5089455;28;20132;-65
2022/06/22 01:39:30;;;;;;;2.30;1.63;;;21.60;55.10;;;;;;5104544;28;20103;-65
2022/06/22 01:42:07;;;;;;;1.80;1.67;;;21.60;55.10;;;;;;5105296;28;20098;-66
2022/06/22 01:44:51;;;;;;;2.03;1.70;;;21.60;55.10;;;;;;5087985;28;20047;-66
2022/06/22 01:47:23;;;;;;;2.28;1.60;;;21.60;55.10;;;;;;5103880;28;20150;-66
2022/06/22 01:50:01;;;;;;;1.90;1.63;;;21.60;55.20;;;;;;5104786;28;20088;-65
2022/06/22 01:52:57;;;;;;;2.45;1.60;;;21.60;55.90;;;;;;5104544;28;20063;-66
2022/06/22 01:55:34;;;;;;;2.50;1.80;;;21.60;55.10;;;;;;5104479;28;20075;-66
2022/06/22 01:58:14;;;;;;;1.90;1.70;;;21.60;55.20;;;;;;5105014;28;20329;-64
2022/06/22 02:00:43;;;;;;;2.30;1.65;;;21.60;55.10;;;;;;5103195;28;20043;-66
2022/06/22 02:03:21;;;;;;;2.38;1.65;;;21.60;55.20;;;;;;5105484;28;20060;-66
2022/06/22 02:09:13;;;;;;;2.58;1.80;;;21.50;55.00;;;;;;5044662;28;20087;-65
2022/06/22 02:11:46;;;;;;;3.22;1.88;;;21.50;55.00;;;;;;5065276;28;20124;-66
2022/06/22 02:14:22;;;;;;;2.72;1.70;;;21.50;55.00;;;;;;5064065;28;20127;-66
2022/06/22 02:16:53;;;;;;;2.45;1.73;;;21.50;55.00;;;;;;5064349;28;20163;-65
2022/06/22 02:19:20;;;;;;;2.97;1.90;;;21.50;55.00;;;;;;5063745;28;20127;-64
2022/06/22 02:21:52;;;;;;;2.40;1.67;;;21.50;55.10;;;;;;5063156;28;20469;-65
2022/06/22 02:24:38;;;;;;;2.50;1.63;;;21.50;55.10;;;;;;5060483;28;20097;-66
2022/06/22 02:27:10;;;;;;;2.72;1.90;;;21.50;55.10;;;;;;5062710;28;20460;-66
2022/06/22 02:29:41;;;;;;;2.13;1.77;;;21.50;55.10;;;;;;5062684;28;20062;-64
2022/06/22 02:32:10;;;;;;;2.00;1.60;;;21.40;55.00;;;;;;5062653;28;20073;-65
2022/06/22 02:34:41;;;;;;;2.00;1.77;;;21.40;55.00;;;;;;5062873;28;20519;-65
2022/06/22 02:37:08;;;;;;;2.08;1.70;;;21.40;55.00;;;;;;5052934;28;20024;-64
2022/06/22 02:39:40;;;;;;;3.00;1.67;;;21.40;55.00;;;;;;5067202;28;20098;-65
2022/06/22 02:44:50;;;;;;;2.50;1.63;;;21.40;55.00;;;;;;5067509;28;20041;-66
2022/06/22 02:47:43;;;;;;;2.08;1.70;;;21.40;55.00;;;;;;5066943;28;20073;-65
2022/06/22 02:50:33;;;;;;;1.70;1.52;;;21.40;55.00;;;;;;5067518;28;20505;-66
2022/06/22 02:53:24;;;;;;;1.83;1.60;;;21.40;55.00;;;;;;5067440;28;20041;-66
2022/06/22 02:55:51;;;;;;;2.05;1.60;;;21.40;55.00;;;;;;5067384;28;20496;-66
2022/06/22 02:58:34;;;;;;;2.58;1.63;;;21.40;55.10;;;;;;5067261;28;20048;-64
2022/06/22 03:01:05;;;;;;;2.13;1.40;;;21.40;55.00;;;;;;5044918;28;20076;-64
2022/06/22 03:03:33;;;;;;;2.42;1.83;;;21.40;55.00;;;;;;5051063;28;20553;-64
2022/06/22 03:05:58;;;;;;;2.85;1.60;;;21.30;55.70;;;;;;5056843;28;20042;-64
2022/06/22 03:08:25;;;;;;;3.53;1.67;;;21.30;54.90;;;;;;5091112;28;20978;-64
2022/06/22 03:10:59;;;;;;;2.13;1.60;;;21.30;54.90;;;;;;5102285;28;20091;-64
2022/06/22 03:13:41;;;;;;;1.90;1.48;;;21.30;54.90;;;;;;5107152;28;20347;-65
2022/06/22 03:16:18;;;;;;;1.73;1.60;;;21.30;54.90;;;;;;5106007;28;20525;-65
2022/06/22 03:18:44;;;;;;;2.33;1.55;;;21.30;54.90;;;;;;5095855;28;20489;-65
2022/06/22 03:21:13;;;;;;;2.00;1.50;;;21.30;54.90;;;;;;5107316;28;20120;-64
2022/06/22 03:23:56;;;;;;;2.90;1.60;;;21.30;54.90;;;;;;5107782;28;20039;-65
2022/06/22 03:26:25;;;;;;;1.85;1.60;;;21.30;54.90;;;;;;5107515;28;20486;-65
2022/06/22 03:29:21;;;;;;;2.25;1.60;;;21.30;54.90;;;;;;5108358;28;20084;-66
2022/06/22 03:31:55;;;;;;;1.73;1.45;;;21.30;54.90;;;;;;5107279;28;20122;-65
2022/06/22 03:34:25;;;;;;;2.55;1.52;;;21.30;54.80;;;;;;5095883;28;20036;-65
2022/06/22 03:36:55;;;;;;;2.22;1.60;;;21.30;54.90;;;;;;5105132;28;20075;-67
2022/06/22 03:39:25;;;;;;;3.20;1.50;;;21.20;54.70;;;;;;5106596;28;20139;-64
2022/06/22 03:41:59;;;;;;;2.30;1.60;;;21.30;54.80;;;;;;5089282;28;20433;-66
2022/06/22 03:44:35;;;;;;;2.65;1.65;;;21.30;54.80;;;;;;5106062;28;20078;-64
2022/06/22 03:47:09;;;;;;;2.38;1.50;;;21.20;54.70;;;;;;5107142;28;20035;-66
2022/06/22 03:49:56;;;;;;;3.10;1.95;;;21.20;54.70;;;;;;5106712;28;20054;-66
2022/06/22 03:52:34;;;;;;;3.63;1.83;;;21.20;54.70;;;;;;5107107;28;20371;-65
2022/06/22 03:55:24;;;;;;;2.38;1.67;;;21.20;54.70;;;;;;5108232;28;20448;-65
2022/06/22 03:57:53;;;;;;;1.73;1.58;;;21.20;54.70;;;;;;5111615;27;20167;-64
2022/06/22 04:00:20;;;;;;;1.70;1.55;;;21.20;54.70;;;;;;5107128;28;20040;-65
2022/06/22 04:02:45;;;;;;;2.92;1.80;;;21.20;54.70;;;;;;5089161;28;20042;-67
2022/06/22 04:05:21;;;;;;;2.70;1.73;;;21.20;54.70;;;;;;5106678;28;20040;-66
2022/06/22 04:07:47;;;;;;;1.95;1.50;;;21.20;54.70;;;;;;5088657;28;20084;-64
2022/06/22 04:10:42;;;;;;;3.03;1.65;;;21.20;54.70;;;;;;5098473;28;20046;-66
2022/06/22 04:13:34;;;;;;;2.05;1.65;;;21.20;54.70;;;;;;5077809;28;20048;-67
2022/06/22 04:16:15;;;;;;;2.25;1.77;;;21.20;54.70;;;;;;5106976;28;20040;-64
2022/06/22 04:18:46;;;;;;;2.42;1.73;;;21.20;54.70;;;;;;5105874;28;20040;-65
2022/06/22 04:21:17;;;;;;;1.60;1.50;;;21.20;54.70;;;;;;5089268;28;20605;-66
2022/06/22 04:23:52;;;;;;;2.08;1.70;;;21.20;54.70;;;;;;5106395;28;21015;-67
2022/06/22 04:26:30;;;;;;;3.30;1.80;;;21.20;54.70;;;;;;5106367;28;20046;-65
2022/06/22 04:29:04;;;;;;;3.05;1.75;;;21.20;54.80;;;;;;5107290;28;20138;-66
2022/06/22 04:31:34;;;;;;;1.90;1.70;;;21.20;54.80;;;;;;5105319;28;20105;-66
2022/06/22 04:34:05;;;;;;;2.03;1.67;;;21.20;54.80;;;;;;5107090;28;20482;-66
2022/06/22 04:36:44;;;;;;;2.47;1.77;;;21.10;54.70;;;;;;5105955;28;20123;-66
2022/06/22 04:39:19;;;;;;;2.35;1.73;;;21.20;54.80;;;;;;5107629;28;20147;-66
2022/06/22 04:41:46;;;;;;;2.30;1.80;;;21.20;54.70;;;;;;5107232;28;20058;-64
2022/06/22 04:44:18;;;;;;;2.13;1.70;;;21.10;54.70;;;;;;5105906;28;20119;-66
2022/06/22 04:46:50;;;;;;;1.98;1.60;;;21.20;54.70;;;;;;5106428;28;20075;-65
2022/06/22 04:49:35;;;;;;;3.85;1.75;;;21.10;54.70;;;;;;5104148;28;20091;-66
2022/06/22 04:52:03;;;;;;;3.80;1.73;;;21.20;54.80;;;;;;5106218;28;20066;-65
2022/06/22 04:54:34;;;;;;;2.28;1.70;;;21.20;54.80;;;;;;5106039;28;20055;-65
2022/06/22 04:57:27;;;;;;;2.15;1.60;;;21.20;54.80;;;;;;5105137;28;20497;-65
2022/06/22 04:59:54;;;;;;;1.85;1.50;;;21.20;54.80;;;;;;5105118;28;20096;-65
2022/06/22 05:02:24;;;;;;;3.22;1.80;;;21.10;54.70;;;;;;5105029;28;20046;-65
2022/06/22 05:04:53;;;;;;;2.00;1.70;;;21.10;54.80;;;;;;5106665;28;20051;-65
2022/06/22 05:07:49;;;;;;;1.98;1.63;;;21.20;54.80;;;;;;5103639;28;20042;-66
2022/06/22 05:10:32;;;;;;;1.52;1.42;;;21.20;54.80;;;;;;5076571;28;20046;-66
2022/06/22 05:13:11;;;;;;;1.45;1.35;;;21.20;54.90;;;;;;5106528;28;20509;-66
2022/06/22 05:15:39;;;;;;;1.77;1.60;;;21.20;54.80;;;;;;5086037;28;20051;-66
2022/06/22 05:18:19;;;;;;;3.03;1.92;;;21.20;54.80;;;;;;5105307;28;20123;-63
2022/06/22 05:20:53;;;;;;;2.42;1.60;;;21.10;54.80;;;;;;5105787;28;20044;-64
2022/06/22 05:23:24;;;;;;;1.63;1.52;;;21.10;54.80;;;;;;5105057;28;20044;-65
2022/06/22 05:25:52;;;;;;;1.83;1.50;;;21.20;55.70;;;;;;5105712;28;20051;-64
2022/06/22 05:28:20;;;;;;;;;;;21.20;54.90;;;;;;5104887;28;20050;-66
2022/06/22 05:31:02;;;;;;;1.88;1.50;;;21.20;54.90;;;;;;5105419;28;20006;-66
2022/06/22 05:33:29;;;;;;;1.90;1.60;;;21.20;54.90;;;;;;5105738;28;20034;-67
2022/06/22 05:36:01;;;;;;;1.77;1.52;;;21.20;54.90;;;;;;5104764;28;20470;-65
2022/06/22 05:38:28;;;;;;;1.60;1.50;;;21.20;54.90;;;;;;5106637;28;20036;-64
2022/06/22 05:40:54;;;;;;;1.70;1.60;;;21.20;54.90;;;;;;5104433;28;20112;-66
2022/06/22 05:43:21;;;;;;;1.80;1.67;;;21.20;55.00;;;;;;5105378;28;20176;-65
2022/06/22 05:45:54;;;;;;;1.75;1.58;;;21.20;55.00;;;;;;5103745;28;20069;-63
2022/06/22 05:48:24;;;;;;;3.03;1.58;;;21.20;55.00;;;;;;5104546;28;20118;-65
2022/06/22 05:50:58;;;;;;;1.88;1.33;;;21.20;55.10;;;;;;5104806;28;20426;-64
2022/06/22 05:53:33;;;;;;;1.98;1.60;;;21.30;55.10;;;;;;5104335;28;20036;-65
2022/06/22 05:56:12;;;;;;;2.45;1.63;;;21.30;55.20;;;;;;5105191;28;20043;-64
2022/06/22 05:58:59;;;;;;;2.08;1.40;;;21.30;55.30;;;;;;5103445;28;20035;-64
2022/06/22 06:01:27;;;;;;;2.20;1.52;;;21.40;55.40;;;;;;5104064;28;20058;-66
2022/06/22 06:04:02;;;;;;;2.67;1.60;;;21.40;55.30;;;;;;5105256;28;20117;-63
2022/06/22 06:06:35;;;;;;;1.70;1.50;;;21.50;55.60;;;;;;5103797;28;20119;-64
2022/06/22 06:09:05;;;;;;;2.22;1.40;;;21.50;55.50;;;;;;5091304;28;20055;-64
2022/06/22 06:11:41;;;;;;;2.10;1.50;;;21.50;55.50;;;;;;5101993;28;20043;-65
2022/06/22 06:14:17;;;;;;;2.15;1.60;;;21.60;55.60;;;;;;5101243;28;20411;-64
2022/06/22 06:16:47;;;;;;;2.47;1.80;;;21.60;55.60;;;;;;5105475;28;20078;-64
2022/06/22 06:19:18;;;;;;;3.33;1.80;;;21.70;55.60;;;;;;5103068;28;20546;-65
2022/06/22 06:21:44;;;;;;;1.77;1.48;;;21.70;55.60;;;;;;5086775;28;20054;-64
2022/06/22 06:24:27;;;;;;;2.75;1.65;;;21.80;56.40;;;;;;5103772;28;20048;-64
2022/06/22 06:30:15;;;;;;;5.10;1.67;;;21.90;55.70;;;;;;5104544;28;20446;-64
2022/06/22 06:32:44;;;;;;;1.70;1.42;;;22.00;55.70;;;;;;5103697;28;20043;-65
2022/06/22 06:35:33;;;;;;;1.65;1.45;;;22.00;55.60;;;;;;5105403;28;20036;-65
2022/06/22 06:38:27;;;;;;;2.10;1.67;;;22.10;55.70;;;;;;5104182;28;20044;-65
2022/06/22 06:41:13;;;;;;;2.13;1.58;;;22.10;55.60;;;;;;5102994;28;20078;-65
2022/06/22 06:44:02;;;;;;;3.78;1.75;;;22.20;55.70;;;;;;5091429;28;20059;-65
2022/06/22 06:46:36;;;;;;;1.70;1.60;;;22.20;55.60;;;;;;5103430;28;20039;-64
2022/06/22 06:49:14;;;;;;;2.13;1.70;;;22.30;55.50;;;;;;5103574;28;20059;-66
2022/06/22 06:51:46;;;;;;;1.70;1.40;;;22.30;55.40;;;;;;5104662;28;20733;-65
2022/06/22 06:54:27;;;;;;;2.75;1.60;;;22.40;55.40;;;;;;5103504;28;20123;-65
2022/06/22 06:57:15;;;;;;;1.77;1.60;;;22.40;55.40;;;;;;5104458;28;20046;-65
2022/06/22 06:59:45;;;;;;;1.90;1.70;;;22.50;55.40;;;;;;5084766;28;20143;-65
2022/06/22 07:02:30;;;;;;;1.65;1.42;;;22.50;55.30;;;;;;5085067;28;20040;-64
2022/06/22 07:04:57;;;;;;;1.60;1.38;;;22.60;55.20;;;;;;5105124;28;20055;-65
2022/06/22 07:07:40;;;;;;;3.58;1.70;;;22.60;55.10;;;;;;5101392;28;20040;-65
2022/06/22 07:10:19;;;;;;;1.63;1.42;;;22.70;55.20;;;;;;5096144;28;20040;-65
2022/06/22 07:12:51;;;;;;;2.65;1.40;;;22.70;55.10;;;;;;5104136;28;20559;-65
2022/06/22 07:15:21;;;;;;;1.65;1.45;;;22.70;55.00;;;;;;5103168;28;20205;-65
2022/06/22 07:17:48;;;;;;;2.20;1.45;;;22.80;55.00;;;;;;5104435;28;20036;-65
2022/06/22 07:20:14;;;;;;;2.15;1.30;;;22.90;55.00;;;;;;5103708;28;20081;-65
2022/06/22 07:22:51;;;;;;;2.65;1.50;;;22.90;54.90;;;;;;5106662;28;20044;-65
2022/06/22 07:25:40;;;;;;;1.30;1.20;;;23.00;55.00;;;;;;5107677;28;20036;-66
2022/06/22 07:28:39;;;;;;;2.08;1.55;;;23.00;54.80;;;;;;5107867;28;20040;-65
2022/06/22 07:31:11;;;;;;;3.05;1.20;;;23.00;54.70;;;;;;5107929;28;20443;-65
2022/06/22 07:33:43;;;;;;;1.45;1.23;;;23.00;54.60;;;;;;5106391;28;20607;-65
2022/06/22 07:36:26;;;;;;;2.60;1.48;;;23.10;54.60;;;;;;5107516;28;20276;-64
2022/06/22 07:39:00;;;;;;;2.33;1.30;;;23.10;54.50;;;;;;5108156;28;20093;-66
2022/06/22 07:41:29;;;;;;;2.10;1.58;;;23.10;54.50;;;;;;5106354;28;20036;-65
2022/06/22 07:44:26;;;;;;;2.83;1.30;;;23.10;54.40;;;;;;5107628;28;20051;-64
2022/06/22 07:46:57;;;;;;;2.55;1.20;;;23.10;54.40;;;;;;5060617;28;20124;-65
2022/06/22 07:49:26;;;;;;;1.70;1.10;;;23.20;54.40;;;;;;5071109;28;20048;-65
2022/06/22 07:52:01;;;;;;;1.50;1.25;;;23.20;54.30;;;;;;5107797;28;20069;-66
2022/06/22 07:54:36;;;;;;;1.60;1.48;;;23.20;54.30;;;;;;5106714;28;20115;-64
2022/06/22 07:57:28;;;;;;;2.53;1.50;;;23.20;54.30;;;;;;5094872;28;20456;-66
2022/06/22 08:00:08;;;;;;;3.42;1.35;;;23.20;54.20;;;;;;5105486;28;20112;-65
2022/06/22 08:02:58;;;;;;;2.58;1.35;;;23.30;54.20;;;;;;5106746;28;20131;-65
2022/06/22 08:05:29;;;;;;;2.08;1.30;;;23.20;54.20;;;;;;5088777;28;20036;-64
2022/06/22 08:08:26;;;;;;;1.88;1.40;;;23.30;54.20;;;;;;5098992;28;20151;-66
2022/06/22 08:11:07;;;;;;;1.73;1.30;;;23.30;54.10;;;;;;5104451;28;20047;-65
2022/06/22 08:13:47;;;;;;;2.78;1.40;;;23.30;54.00;;;;;;5099409;28;20568;-65
2022/06/22 08:16:17;;;;;;;2.35;1.30;;;23.30;54.00;;;;;;5105926;28;20031;-65
2022/06/22 08:18:44;;;;;;;1.73;1.10;;;23.30;54.00;;;;;;5107209;28;20036;-64
2022/06/22 08:21:14;;;;;;;4.75;1.40;;;23.30;54.00;;;;;;5106562;28;20036;-64
2022/06/22 08:23:41;;;;;;;1.63;1.25;;;23.40;54.00;;;;;;5107657;28;20143;-66
2022/06/22 08:26:15;;;;;;;3.35;1.50;;;23.40;54.00;;;;;;5106934;28;20043;-65
2022/06/22 08:28:40;;;;;;;3.28;1.42;;;23.40;53.90;;;;;;5088277;28;20044;-65
2022/06/22 08:31:07;;;;;;;2.05;1.08;;;23.40;53.90;;;;;;5107117;28;20057;-66
2022/06/22 08:33:39;;;;;;;2.60;1.30;;;23.40;53.90;;;;;;5104698;28;20341;-65
2022/06/22 08:36:18;;;;;;;2.85;1.55;;;23.40;53.80;;;;;;5107194;28;20453;-64
2022/06/22 08:39:09;;;;;;;2.17;1.30;;;23.40;53.80;;;;;;5106915;28;20054;-66
2022/06/22 08:41:51;;;;;;;2.15;1.42;;;23.40;53.80;;;;;;5081300;28;20131;-65
2022/06/22 08:44:44;;;;;;;2.75;1.40;;;23.40;53.80;;;;;;5106649;28;20043;-65
2022/06/22 08:47:19;;;;;;;2.30;1.48;;;23.40;53.70;;;;;;5105131;28;20039;-64
2022/06/22 08:50:06;;;;;;;2.50;1.40;;;23.50;53.80;;;;;;5105627;28;20044;-65
2022/06/22 08:52:40;;;;;;;2.38;1.30;;;23.50;53.70;;;;;;5106594;28;20101;-66
2022/06/22 08:55:43;;;;;;;2.50;1.80;;;23.50;53.70;;;;;;5105224;28;20559;-64
2022/06/22 08:58:43;;;;;;;1.65;1.20;;;23.50;53.70;;;;;;5101720;28;20071;-65
2022/06/22 09:01:40;;;;;;;1.60;1.08;;;23.50;53.70;;;;;;5105619;28;20158;-63
2022/06/22 09:04:28;;;;;;;1.45;1.20;;;23.50;53.70;;;;;;5104030;28;20062;-65
2022/06/22 09:07:15;;;;;;;1.92;1.23;;;23.50;53.70;;;;;;5106194;28;20039;-66
2022/06/22 09:09:58;;;;;;;1.38;1.20;;;23.50;53.70;;;;;;5093014;28;20092;-65
2022/06/22 09:12:52;;;;;;;2.70;1.40;;;23.50;53.60;;;;;;5104935;28;20526;-65
2022/06/22 09:15:34;;;;;;;1.80;1.25;;;23.50;53.60;;;;;;5086940;28;20437;-66
2022/06/22 09:18:27;;;;;;;2.63;1.38;;;23.50;53.70;;;;;;5105035;28;20036;-65
2022/06/22 09:21:21;;;;;;;1.83;1.15;;;23.50;53.60;;;;;;5103915;28;20039;-65
2022/06/22 09:24:05;;;;;;;2.08;1.30;;;23.50;53.60;;;;;;5106114;28;20339;-64
2022/06/22 09:26:30;;;;;;;1.77;1.38;;;23.50;53.60;;;;;;5104861;28;20054;-65
2022/06/22 09:28:59;;;;;;;3.45;1.73;;;23.50;53.60;;;;;;5105626;28;20499;-65
2022/06/22 09:31:56;;;;;;;3.13;1.20;;;23.50;53.60;;;;;;5104798;28;20126;-65
2022/06/22 09:34:49;;;;;;;2.28;1.17;;;23.50;53.50;;;;;;5104108;28;20043;-65
2022/06/22 09:37:43;;;;;;;2.13;1.10;;;23.50;53.50;;;;;;5095643;28;20132;-66
2022/06/22 09:40:21;;;;;;;2.70;1.30;;;23.50;53.50;;;;;;5105654;28;20043;-65
2022/06/22 09:43:03;;;;;;;2.53;1.27;;;23.60;53.50;;;;;;5104649;28;20180;-65
2022/06/22 09:45:31;;;;;;;1.90;1.20;;;23.60;53.50;;;;;;5092770;28;20039;-65
2022/06/22 09:48:09;;;;;;;1.75;1.30;;;23.50;53.40;;;;;;5104668;28;20123;-66
2022/06/22 09:50:55;;;;;;;2.13;1.27;;;23.60;53.50;;;;;;5105458;28;20049;-65
2022/06/22 09:53:40;;;;;;;1.48;1.10;;;23.50;53.40;;;;;;5105997;28;20048;-65
2022/06/22 09:56:23;;;;;;;1.45;1.33;;;23.60;53.40;;;;;;5104398;28;20066;-65
2022/06/22 09:59:24;;;;;;;1.80;1.40;;;23.60;53.40;;;;;;5105627;28;20051;-64
2022/06/22 10:02:27;;;;;;;1.20;1.10;;;23.60;53.30;;;;;;5105463;28;20055;-64
2022/06/22 10:05:12;;;;;;;2.25;1.10;;;23.60;53.40;;;;;;5103847;28;20077;-66
2022/06/22 10:08:17;;;;;;;2.72;1.45;;;23.60;53.30;;;;;;5088320;28;20052;-65
2022/06/22 10:10:56;;;;;;;1.77;1.20;;;23.60;53.30;;;;;;5100610;28;20052;-65
2022/06/22 10:13:40;;;;;;;2.50;1.45;;;23.60;53.20;;;;;;5095976;28;20040;-65
2022/06/22 10:16:25;;;;;;;2.65;1.40;;;23.60;53.20;;;;;;5104610;28;20513;-66
2022/06/22 10:18:59;;;;;;;2.33;1.40;;;23.60;53.20;;;;;;5104616;28;20044;-66
2022/06/22 10:21:35;;;;;;;2.15;1.45;;;23.60;53.20;;;;;;5103233;28;20043;-64
2022/06/22 10:24:07;;;;;;;1.55;1.40;;;23.60;53.20;;;;;;5105111;28;20040;-65
2022/06/22 10:26:51;;;;;;;2.95;1.48;;;23.60;53.20;;;;;;5089696;28;20032;-65
2022/06/22 10:29:40;;;;;;;5.25;1.40;;;23.60;53.10;;;;;;5103537;28;20074;-65
2022/06/22 10:32:17;;;;;;;;;;;23.60;53.20;;;;;;5105281;28;20099;-65
2022/06/22 10:35:04;;;;;;;2.15;1.45;;;23.60;53.20;;;;;;5103546;28;20315;-65
2022/06/22 10:37:48;;;;;;;2.35;1.30;;;23.60;53.30;;;;;;5105078;28;20043;-65
2022/06/22 10:45:08;;;;;;;2.05;1.30;;;23.60;53.10;;;;;;5091291;28;20451;-65
2022/06/22 10:47:05;;;;;;;1.77;1.02;;;23.50;53.10;;;;;;5104213;28;20054;-65
2022/06/22 10:49:42;;;;;;;2.00;1.40;;;23.60;53.10;;;;;;5120432;28;20055;-64
2022/06/22 10:52:37;;;;;;;1.63;1.20;;;23.60;53.10;;;;;;5085456;28;20044;-65
2022/06/22 10:55:20;;;;;;;3.42;1.30;;;23.50;53.00;;;;;;5104346;28;20111;-65
2022/06/22 10:58:10;;;;;;;2.08;1.42;;;23.60;53.20;;;;;;5107048;28;20110;-65
2022/06/22 11:00:59;;;;;;;2.05;1.20;;;23.60;53.10;;;;;;5106724;28;20128;-65
2022/06/22 11:03:57;;;;;;;3.03;1.27;;;23.60;53.10;;;;;;5108071;28;20165;-65
2022/06/22 11:06:56;;;;;;;2.17;1.40;;;23.50;53.00;;;;;;5108512;28;20055;-66
2022/06/22 11:09:30;;;;;;;2.40;1.33;;;23.60;53.10;;;;;;5091376;28;20150;-64
2022/06/22 11:12:07;;;;;;;1.60;1.17;;;23.60;53.10;;;;;;5108085;28;20122;-65
2022/06/22 11:14:50;;;;;;;2.85;1.45;;;23.60;53.10;;;;;;5107193;28;20124;-65
2022/06/22 11:18:00;;;;;;;2.00;1.25;;;23.60;53.10;;;;;;5107399;28;20376;-65
2022/06/22 11:20:53;;;;;;;1.38;1.15;;;23.60;53.00;;;;;;5099249;28;20403;-65
2022/06/22 11:23:43;;;;;;;2.05;1.20;;;23.60;53.10;;;;;;5098827;28;20077;-65
2022/06/22 11:32:49;;;;;;;2.20;1.40;;;23.60;53.20;;;;;;5107540;28;20044;-66
2022/06/22 11:35:33;;;;;;;1.80;1.30;;;23.60;53.40;;;;;;5087140;28;20384;-65
2022/06/22 11:38:19;;;;;;;1.38;1.20;;;23.60;53.10;;;;;;5085676;28;20466;-64
2022/06/22 11:40:55;;;;;;;1.58;1.30;;;23.80;53.40;;;;;;5107366;28;20100;-65
2022/06/22 11:43:43;;;;;;;1.77;1.13;;;24.00;52.80;;;;;;5107042;28;20083;-64
2022/06/22 11:46:41;;;;;;;2.45;1.40;;;24.30;52.20;;;;;;5089279;28;20570;-64
2022/06/22 11:49:10;;;;;;;2.08;1.35;;;24.50;51.60;;;;;;5096825;28;20077;-65
2022/06/22 11:51:45;;;;;;;;;;;24.70;51.50;;;;;;5107677;28;20043;-66
2022/06/22 11:54:33;;;;;;;2.03;1.10;;;24.90;50.90;;;;;;5107794;28;20346;-65
2022/06/22 11:57:11;;;;;;;1.98;1.30;;;25.00;51.00;;;;;;5106465;28;20059;-65
2022/06/22 11:59:39;;;;;;;1.60;1.30;;;25.20;50.30;;;;;;5106513;28;20126;-65
2022/06/22 12:02:40;;;;;;;1.85;1.27;;;25.40;50.00;;;;;;5106206;28;20490;-66
2022/06/22 12:05:30;;;;;;;2.05;1.40;;;25.50;49.20;;;;;;5106286;28;20051;-65
2022/06/22 12:08:31;;;;;;;1.50;1.20;;;25.60;48.80;;;;;;5100176;28;20591;-65
2022/06/22 12:11:25;;;;;;;1.98;1.20;;;25.50;48.60;;;;;;5104375;28;20160;-65
2022/06/22 12:17:08;;;;;;;2.25;1.10;;;25.10;49.40;;;;;;5102388;28;20499;-65
2022/06/22 12:19:41;;;;;;;1.45;1.30;;;25.00;49.80;;;;;;5105909;28;20166;-65
2022/06/22 12:22:17;;;;;;;1.27;1.10;;;25.00;50.00;;;;;;5106929;28;20055;-65
2022/06/22 12:25:01;;;;;;;1.60;1.50;;;25.00;50.00;;;;;;5107556;28;20036;-66
2022/06/22 12:27:40;;;;;;;2.40;1.17;;;25.30;49.50;;;;;;5106365;28;20047;-65
2022/06/22 12:30:27;;;;;;;1.40;1.20;;;25.50;48.90;;;;;;5094176;28;20044;-65
2022/06/22 12:32:59;;;;;;;1.47;1.17;;;25.40;48.70;;;;;;5106259;28;20387;-65
2022/06/22 12:35:29;;;;;;;1.45;1.13;;;25.30;48.80;;;;;;5105771;28;20406;-65
2022/06/22 12:38:13;;;;;;;1.45;1.23;;;25.10;49.00;;;;;;5106859;28;20096;-65
2022/06/22 12:41:20;;;;;;;1.85;1.30;;;24.90;49.10;;;;;;5105651;28;20118;-64
2022/06/22 12:44:01;;;;;;;2.00;1.50;;;24.80;49.40;;;;;;5093595;28;20046;-64
2022/06/22 12:46:38;;;;;;;1.48;1.30;;;24.70;49.60;;;;;;5106173;28;20039;-65
2022/06/22 12:49:36;;;;;;;3.08;1.10;;;24.60;49.80;;;;;;5105471;28;20122;-65
2022/06/22 12:52:07;;;;;;;2.22;1.30;;;24.50;50.00;;;;;;5105847;28;20039;-64
2022/06/22 12:54:43;;;;;;;5.65;1.40;;;24.40;50.20;;;;;;5106221;28;20091;-65
2022/06/22 12:57:40;;;;;;;1.75;1.58;;;24.30;50.30;;;;;;5105285;28;20456;-66
2022/06/22 13:00:12;;;;;;;1.63;1.42;;;24.30;50.60;;;;;;5105382;28;20139;-65
2022/06/22 13:02:40;;;;;;;4.32;1.20;;;24.20;50.50;;;;;;5105563;28;20118;-65
2022/06/22 13:05:11;;;;;;;2.63;1.52;;;24.20;50.70;;;;;;5106443;28;20445;-66
2022/06/22 13:07:58;;;;;;;2.22;1.20;;;24.20;50.80;;;;;;5102274;28;20071;-65
2022/06/22 13:10:27;;;;;;;1.73;1.40;;;24.20;50.90;;;;;;5098816;28;20081;-64
2022/06/22 13:13:07;;;;;;;1.50;1.23;;;24.20;50.90;;;;;;5105841;28;20043;-64
2022/06/22 13:15:40;;;;;;;1.50;1.20;;;24.20;50.90;;;;;;5104528;28;20043;-64
2022/06/22 13:18:14;;;;;;;2.33;1.38;;;24.10;50.90;;;;;;5105432;28;20410;-64
2022/06/22 13:20:55;;;;;;;1.98;1.30;;;24.10;51.00;;;;;;5104659;28;20040;-64
2022/06/22 13:23:39;;;;;;;3.00;1.50;;;24.10;51.10;;;;;;5104665;28;20063;-64
2022/06/22 13:26:34;;;;;;;1.40;1.30;;;24.10;51.10;;;;;;5106260;28;20083;-64
2022/06/22 13:29:37;;;;;;;1.40;1.30;;;24.10;51.20;;;;;;5104958;28;20043;-65
2022/06/22 13:32:07;;;;;;;1.52;1.42;;;24.00;51.30;;;;;;5093298;28;20521;-64
2022/06/22 13:34:51;;;;;;;2.58;1.40;;;24.00;51.30;;;;;;5104497;28;20131;-64
2022/06/22 13:37:35;;;;;;;2.90;1.38;;;24.00;51.30;;;;;;5095055;28;20044;-63
2022/06/22 13:40:12;;;;;;;3.78;1.30;;;24.00;51.30;;;;;;5104830;28;20039;-64
2022/06/22 13:42:57;;;;;;;2.50;1.33;;;24.00;51.40;;;;;;5105831;28;20051;-64
2022/06/22 13:45:31;;;;;;;2.60;1.42;;;24.00;51.40;;;;;;5068642;28;20424;-65
2022/06/22 13:48:12;;;;;;;2.05;1.55;;;24.00;51.50;;;;;;5099168;28;20055;-65
2022/06/22 13:53:54;;;;;;;2.00;1.60;;;24.10;51.30;;;;;;5104850;28;20098;-65
2022/06/22 13:56:41;;;;;;;3.47;1.50;;;24.20;51.30;;;;;;5105678;28;20043;-66
2022/06/22 13:59:27;;;;;;;3.03;1.40;;;24.20;51.30;;;;;;5091442;28;20051;-65
2022/06/22 14:02:04;;;;;;;2.40;1.42;;;24.10;51.30;;;;;;5085863;28;20036;-64
2022/06/22 14:04:37;;;;;;;2.40;1.50;;;24.10;51.40;;;;;;5104837;28;20032;-64
2022/06/22 14:07:11;;;;;;;1.77;1.40;;;24.10;51.50;;;;;;5104015;28;20305;-65
2022/06/22 14:09:44;;;;;;;3.00;1.60;;;24.00;51.40;;;;;;5104551;28;20528;-64
2022/06/22 14:12:18;;;;;;;1.92;1.40;;;24.00;51.50;;;;;;5096959;28;20052;-65
2022/06/22 14:15:18;;;;;;;2.35;1.45;;;24.00;51.60;;;;;;5090771;28;20457;-64